sensor_id;sensor_type;location;lat;lon;timestamp;P1;durP1;ratioP1;P2;durP2;ratioP2
68583;SDS011;55557;49.220;11.150;2023-11-21T00:02:07;4.23;;;1.70;;
68583;SDS011;55557;49.220;11.150;2023-11-21T00:04:33;2.73;;;1.90;;
68583;SDS011;55557;49.220;11.150;2023-11-21T00:07:10;3.73;;;1.93;;
68583;SDS011;55557;49.220;11.150;2023-11-21T00:09:36;6.00;;;2.07;;
68583;SDS011;55557;49.220;11.150;2023-11-21T00:12:02;4.57;;;1.77;;
68583;SDS011;55557;49.220;11.150;2023-11-21T00:14:28;2.73;;;1.40;;
68583;SDS011;55557;49.220;11.150;2023-11-21T00:16:54;3.97;;;1.50;;
68583;SDS011;55557;49.220;11.150;2023-11-21T00:19:20;6.00;;;1.80;;
68583;SDS011;55557;49.220;11.150;2023-11-21T00:21:46;2.57;;;1.20;;
68583;SDS011;55557;49.220;11.150;2023-11-21T00:24:12;2.10;;;0.80;;
68583;SDS011;55557;49.220;11.150;2023-11-21T00:26:39;2.47;;;1.40;;
68583;SDS011;55557;49.220;11.150;2023-11-21T00:29:05;2.47;;;0.90;;
68583;SDS011;55557;49.220;11.150;2023-11-21T00:31:34;2.90;;;1.23;;
68583;SDS011;55557;49.220;11.150;2023-11-21T00:34:03;1.47;;;0.70;;
68583;SDS011;55557;49.220;11.150;2023-11-21T00:36:30;3.73;;;0.80;;
68583;SDS011;55557;49.220;11.150;2023-11-21T00:38:56;4.37;;;1.07;;
68583;SDS011;55557;49.220;11.150;2023-11-21T00:41:22;6.77;;;1.37;;
68583;SDS011;55557;49.220;11.150;2023-11-21T00:43:48;4.17;;;1.40;;
68583;SDS011;55557;49.220;11.150;2023-11-21T00:46:15;2.63;;;1.23;;
68583;SDS011;55557;49.220;11.150;2023-11-21T00:48:41;5.07;;;1.20;;
68583;SDS011;55557;49.220;11.150;2023-11-21T00:51:07;4.07;;;1.20;;
68583;SDS011;55557;49.220;11.150;2023-11-21T00:53:33;1.27;;;0.80;;
68583;SDS011;55557;49.220;11.150;2023-11-21T00:55:59;1.83;;;0.77;;
68583;SDS011;55557;49.220;11.150;2023-11-21T00:58:25;3.33;;;0.97;;
68583;SDS011;55557;49.220;11.150;2023-11-21T01:00:52;6.10;;;1.20;;
68583;SDS011;55557;49.220;11.150;2023-11-21T01:03:18;2.27;;;0.90;;
68583;SDS011;55557;49.220;11.150;2023-11-21T01:05:44;1.53;;;0.90;;
68583;SDS011;55557;49.220;11.150;2023-11-21T01:08:10;2.83;;;0.90;;
68583;SDS011;55557;49.220;11.150;2023-11-21T01:10:36;2.20;;;1.20;;
68583;SDS011;55557;49.220;11.150;2023-11-21T01:13:03;5.53;;;1.40;;
68583;SDS011;55557;49.220;11.150;2023-11-21T01:15:32;4.17;;;1.17;;
68583;SDS011;55557;49.220;11.150;2023-11-21T01:17:58;4.60;;;1.17;;
68583;SDS011;55557;49.220;11.150;2023-11-21T01:20:24;3.75;;;1.35;;
68583;SDS011;55557;49.220;11.150;2023-11-21T01:22:50;5.67;;;0.97;;
68583;SDS011;55557;49.220;11.150;2023-11-21T01:25:16;2.47;;;1.40;;
68583;SDS011;55557;49.220;11.150;2023-11-21T01:27:42;1.20;;;1.00;;
68583;SDS011;55557;49.220;11.150;2023-11-21T01:30:08;1.80;;;0.93;;
68583;SDS011;55557;49.220;11.150;2023-11-21T01:32:38;3.70;;;1.27;;
68583;SDS011;55557;49.220;11.150;2023-11-21T01:35:04;3.47;;;0.93;;
68583;SDS011;55557;49.220;11.150;2023-11-21T01:37:31;3.33;;;1.07;;
68583;SDS011;55557;49.220;11.150;2023-11-21T01:39:58;4.30;;;1.40;;
68583;SDS011;55557;49.220;11.150;2023-11-21T01:42:24;2.70;;;1.67;;
68583;SDS011;55557;49.220;11.150;2023-11-21T01:44:50;3.67;;;1.67;;
68583;SDS011;55557;49.220;11.150;2023-11-21T01:47:16;2.87;;;1.50;;
68583;SDS011;55557;49.220;11.150;2023-11-21T01:49:43;4.47;;;1.90;;
68583;SDS011;55557;49.220;11.150;2023-11-21T01:52:09;3.50;;;2.20;;
68583;SDS011;55557;49.220;11.150;2023-11-21T01:54:36;7.17;;;2.30;;
68583;SDS011;55557;49.220;11.150;2023-11-21T01:57:02;6.23;;;1.80;;
68583;SDS011;55557;49.220;11.150;2023-11-21T01:59:37;4.10;;;1.50;;
68583;SDS011;55557;49.220;11.150;2023-11-21T02:02:04;4.30;;;1.43;;
68583;SDS011;55557;49.220;11.150;2023-11-21T02:04:32;3.70;;;1.70;;
68583;SDS011;55557;49.220;11.150;2023-11-21T02:06:58;1.57;;;1.43;;
68583;SDS011;55557;49.220;11.150;2023-11-21T02:09:27;6.37;;;1.70;;
68583;SDS011;55557;49.220;11.150;2023-11-21T02:11:55;8.50;;;1.57;;
68583;SDS011;55557;49.220;11.150;2023-11-21T02:14:21;2.07;;;1.40;;
68583;SDS011;55557;49.220;11.150;2023-11-21T02:16:50;1.30;;;1.13;;
68583;SDS011;55557;49.220;11.150;2023-11-21T02:19:21;2.33;;;1.20;;
68583;SDS011;55557;49.220;11.150;2023-11-21T02:21:50;3.47;;;1.13;;
68583;SDS011;55557;49.220;11.150;2023-11-21T02:24:18;1.53;;;1.10;;
68583;SDS011;55557;49.220;11.150;2023-11-21T02:26:44;2.80;;;1.20;;
68583;SDS011;55557;49.220;11.150;2023-11-21T02:29:11;1.73;;;1.20;;
68583;SDS011;55557;49.220;11.150;2023-11-21T02:31:38;2.00;;;1.27;;
68583;SDS011;55557;49.220;11.150;2023-11-21T02:34:12;3.30;;;1.07;;
68583;SDS011;55557;49.220;11.150;2023-11-21T02:36:38;6.07;;;1.40;;
68583;SDS011;55557;49.220;11.150;2023-11-21T02:39:07;1.57;;;0.80;;
68583;SDS011;55557;49.220;11.150;2023-11-21T02:41:33;1.20;;;1.00;;
68583;SDS011;55557;49.220;11.150;2023-11-21T02:43:59;2.67;;;1.50;;
68583;SDS011;55557;49.220;11.150;2023-11-21T02:46:25;4.20;;;0.77;;
68583;SDS011;55557;49.220;11.150;2023-11-21T02:48:52;2.47;;;0.93;;
68583;SDS011;55557;49.220;11.150;2023-11-21T02:51:21;1.93;;;1.03;;
68583;SDS011;55557;49.220;11.150;2023-11-21T02:53:47;3.23;;;0.97;;
68583;SDS011;55557;49.220;11.150;2023-11-21T02:56:14;0.93;;;0.70;;
68583;SDS011;55557;49.220;11.150;2023-11-21T02:58:43;1.07;;;0.97;;
68583;SDS011;55557;49.220;11.150;2023-11-21T03:01:10;1.57;;;0.90;;
68583;SDS011;55557;49.220;11.150;2023-11-21T03:03:36;1.83;;;1.17;;
68583;SDS011;55557;49.220;11.150;2023-11-21T03:06:05;2.53;;;0.87;;
68583;SDS011;55557;49.220;11.150;2023-11-21T03:08:31;3.50;;;1.10;;
68583;SDS011;55557;49.220;11.150;2023-11-21T03:10:57;3.90;;;1.07;;
68583;SDS011;55557;49.220;11.150;2023-11-21T03:13:23;1.50;;;1.03;;
68583;SDS011;55557;49.220;11.150;2023-11-21T03:15:49;1.07;;;0.80;;
68583;SDS011;55557;49.220;11.150;2023-11-21T03:18:15;3.77;;;1.13;;
68583;SDS011;55557;49.220;11.150;2023-11-21T03:20:42;1.43;;;0.90;;
68583;SDS011;55557;49.220;11.150;2023-11-21T03:23:11;0.63;;;0.63;;
68583;SDS011;55557;49.220;11.150;2023-11-21T03:25:37;1.57;;;0.80;;
68583;SDS011;55557;49.220;11.150;2023-11-21T03:28:03;1.80;;;0.67;;
68583;SDS011;55557;49.220;11.150;2023-11-21T03:30:30;4.10;;;0.80;;
68583;SDS011;55557;49.220;11.150;2023-11-21T03:32:56;3.13;;;1.30;;
68583;SDS011;55557;49.220;11.150;2023-11-21T03:35:22;2.07;;;0.80;;
68583;SDS011;55557;49.220;11.150;2023-11-21T03:37:48;3.53;;;0.80;;
68583;SDS011;55557;49.220;11.150;2023-11-21T03:40:14;3.37;;;0.97;;
68583;SDS011;55557;49.220;11.150;2023-11-21T03:42:40;0.57;;;0.57;;
68583;SDS011;55557;49.220;11.150;2023-11-21T03:45:07;3.07;;;0.80;;
68583;SDS011;55557;49.220;11.150;2023-11-21T03:47:33;1.10;;;0.93;;
68583;SDS011;55557;49.220;11.150;2023-11-21T03:49:59;4.47;;;0.80;;
68583;SDS011;55557;49.220;11.150;2023-11-21T03:52:25;1.83;;;0.90;;
68583;SDS011;55557;49.220;11.150;2023-11-21T03:54:53;1.87;;;0.80;;
68583;SDS011;55557;49.220;11.150;2023-11-21T03:57:20;3.20;;;0.77;;
68583;SDS011;55557;49.220;11.150;2023-11-21T03:59:46;3.10;;;1.03;;
68583;SDS011;55557;49.220;11.150;2023-11-21T04:02:12;1.97;;;0.70;;
68583;SDS011;55557;49.220;11.150;2023-11-21T04:04:40;1.63;;;0.93;;
68583;SDS011;55557;49.220;11.150;2023-11-21T04:07:07;2.90;;;0.97;;
68583;SDS011;55557;49.220;11.150;2023-11-21T04:09:33;4.47;;;1.00;;
68583;SDS011;55557;49.220;11.150;2023-11-21T04:11:59;1.80;;;0.67;;
68583;SDS011;55557;49.220;11.150;2023-11-21T04:14:25;1.50;;;0.90;;
68583;SDS011;55557;49.220;11.150;2023-11-21T04:16:51;2.03;;;1.20;;
68583;SDS011;55557;49.220;11.150;2023-11-21T04:19:17;5.90;;;1.43;;
68583;SDS011;55557;49.220;11.150;2023-11-21T04:21:43;1.93;;;1.20;;
68583;SDS011;55557;49.220;11.150;2023-11-21T04:24:09;3.53;;;1.47;;
68583;SDS011;55557;49.220;11.150;2023-11-21T04:26:35;2.27;;;1.63;;
68583;SDS011;55557;49.220;11.150;2023-11-21T04:29:01;4.57;;;1.47;;
68583;SDS011;55557;49.220;11.150;2023-11-21T04:31:27;1.60;;;1.50;;
68583;SDS011;55557;49.220;11.150;2023-11-21T04:33:53;3.33;;;1.50;;
68583;SDS011;55557;49.220;11.150;2023-11-21T04:36:19;2.87;;;1.67;;
68583;SDS011;55557;49.220;11.150;2023-11-21T04:38:45;3.77;;;1.37;;
68583;SDS011;55557;49.220;11.150;2023-11-21T04:41:11;6.63;;;2.13;;
68583;SDS011;55557;49.220;11.150;2023-11-21T04:43:37;2.80;;;2.00;;
68583;SDS011;55557;49.220;11.150;2023-11-21T04:46:03;1.63;;;1.30;;
68583;SDS011;55557;49.220;11.150;2023-11-21T04:48:29;3.63;;;1.80;;
68583;SDS011;55557;49.220;11.150;2023-11-21T04:50:55;2.03;;;1.50;;
68583;SDS011;55557;49.220;11.150;2023-11-21T04:53:21;4.97;;;1.50;;
68583;SDS011;55557;49.220;11.150;2023-11-21T04:55:47;2.83;;;2.13;;
68583;SDS011;55557;49.220;11.150;2023-11-21T04:58:13;5.70;;;1.57;;
68583;SDS011;55557;49.220;11.150;2023-11-21T05:00:39;3.67;;;1.90;;
68583;SDS011;55557;49.220;11.150;2023-11-21T05:03:06;1.77;;;1.50;;
68583;SDS011;55557;49.220;11.150;2023-11-21T05:05:32;4.97;;;2.07;;
68583;SDS011;55557;49.220;11.150;2023-11-21T05:07:59;4.17;;;1.20;;
68583;SDS011;55557;49.220;11.150;2023-11-21T05:10:26;2.73;;;1.10;;
68583;SDS011;55557;49.220;11.150;2023-11-21T05:12:52;2.73;;;1.30;;
68583;SDS011;55557;49.220;11.150;2023-11-21T05:15:18;1.23;;;0.87;;
68583;SDS011;55557;49.220;11.150;2023-11-21T05:17:44;2.33;;;1.13;;
68583;SDS011;55557;49.220;11.150;2023-11-21T05:20:11;1.53;;;1.07;;
68583;SDS011;55557;49.220;11.150;2023-11-21T05:22:38;3.27;;;1.10;;
68583;SDS011;55557;49.220;11.150;2023-11-21T05:25:05;1.27;;;1.00;;
68583;SDS011;55557;49.220;11.150;2023-11-21T05:27:33;1.77;;;1.30;;
68583;SDS011;55557;49.220;11.150;2023-11-21T05:30:00;3.03;;;1.50;;
68583;SDS011;55557;49.220;11.150;2023-11-21T05:32:27;2.83;;;0.80;;
68583;SDS011;55557;49.220;11.150;2023-11-21T05:34:53;2.90;;;0.97;;
68583;SDS011;55557;49.220;11.150;2023-11-21T05:37:19;3.10;;;0.90;;
68583;SDS011;55557;49.220;11.150;2023-11-21T05:39:45;1.87;;;1.20;;
68583;SDS011;55557;49.220;11.150;2023-11-21T05:42:11;1.20;;;1.10;;
68583;SDS011;55557;49.220;11.150;2023-11-21T05:44:38;1.27;;;0.70;;
68583;SDS011;55557;49.220;11.150;2023-11-21T05:47:06;0.87;;;0.70;;
68583;SDS011;55557;49.220;11.150;2023-11-21T05:49:33;3.83;;;1.00;;
68583;SDS011;55557;49.220;11.150;2023-11-21T05:52:00;1.27;;;1.13;;
68583;SDS011;55557;49.220;11.150;2023-11-21T05:54:26;1.37;;;0.73;;
68583;SDS011;55557;49.220;11.150;2023-11-21T05:56:51;2.40;;;0.90;;
68583;SDS011;55557;49.220;11.150;2023-11-21T05:59:17;2.70;;;1.07;;
68583;SDS011;55557;49.220;11.150;2023-11-21T06:01:45;1.80;;;1.00;;
68583;SDS011;55557;49.220;11.150;2023-11-21T06:04:11;3.57;;;1.37;;
68583;SDS011;55557;49.220;11.150;2023-11-21T06:06:37;3.87;;;1.17;;
68583;SDS011;55557;49.220;11.150;2023-11-21T06:09:04;2.47;;;1.30;;
68583;SDS011;55557;49.220;11.150;2023-11-21T06:11:32;2.40;;;1.17;;
68583;SDS011;55557;49.220;11.150;2023-11-21T06:13:58;5.23;;;1.30;;
68583;SDS011;55557;49.220;11.150;2023-11-21T06:16:24;5.53;;;1.10;;
68583;SDS011;55557;49.220;11.150;2023-11-21T06:18:50;1.10;;;1.00;;
68583;SDS011;55557;49.220;11.150;2023-11-21T06:21:16;4.60;;;0.60;;
68583;SDS011;55557;49.220;11.150;2023-11-21T06:23:43;3.33;;;1.00;;
68583;SDS011;55557;49.220;11.150;2023-11-21T06:26:09;1.43;;;0.80;;
68583;SDS011;55557;49.220;11.150;2023-11-21T06:28:35;1.20;;;0.97;;
68583;SDS011;55557;49.220;11.150;2023-11-21T06:31:03;1.10;;;0.90;;
68583;SDS011;55557;49.220;11.150;2023-11-21T06:33:33;1.87;;;0.87;;
68583;SDS011;55557;49.220;11.150;2023-11-21T06:35:59;1.90;;;0.83;;
68583;SDS011;55557;49.220;11.150;2023-11-21T06:38:28;3.47;;;1.10;;
68583;SDS011;55557;49.220;11.150;2023-11-21T06:40:57;4.83;;;1.30;;
68583;SDS011;55557;49.220;11.150;2023-11-21T06:43:26;1.87;;;1.10;;
68583;SDS011;55557;49.220;11.150;2023-11-21T06:45:52;3.00;;;1.10;;
68583;SDS011;55557;49.220;11.150;2023-11-21T06:48:19;3.80;;;0.90;;
68583;SDS011;55557;49.220;11.150;2023-11-21T06:50:45;2.20;;;1.00;;
68583;SDS011;55557;49.220;11.150;2023-11-21T06:53:12;1.37;;;0.90;;
68583;SDS011;55557;49.220;11.150;2023-11-21T06:55:40;1.47;;;1.00;;
68583;SDS011;55557;49.220;11.150;2023-11-21T06:58:06;2.20;;;1.30;;
68583;SDS011;55557;49.220;11.150;2023-11-21T07:00:32;4.60;;;1.47;;
68583;SDS011;55557;49.220;11.150;2023-11-21T07:02:58;3.83;;;0.93;;
68583;SDS011;55557;49.220;11.150;2023-11-21T07:05:24;1.70;;;1.10;;
68583;SDS011;55557;49.220;11.150;2023-11-21T07:07:51;4.87;;;1.40;;
68583;SDS011;55557;49.220;11.150;2023-11-21T07:10:19;1.10;;;1.00;;
68583;SDS011;55557;49.220;11.150;2023-11-21T07:12:45;2.37;;;1.23;;
68583;SDS011;55557;49.220;11.150;2023-11-21T07:15:11;3.93;;;1.47;;
68583;SDS011;55557;49.220;11.150;2023-11-21T07:17:37;4.80;;;1.20;;
68583;SDS011;55557;49.220;11.150;2023-11-21T07:20:03;3.50;;;1.30;;
68583;SDS011;55557;49.220;11.150;2023-11-21T07:22:29;4.00;;;1.20;;
68583;SDS011;55557;49.220;11.150;2023-11-21T07:24:55;4.73;;;2.70;;
68583;SDS011;55557;49.220;11.150;2023-11-21T07:27:21;4.33;;;1.63;;
68583;SDS011;55557;49.220;11.150;2023-11-21T07:29:47;1.97;;;1.00;;
68583;SDS011;55557;49.220;11.150;2023-11-21T07:32:13;2.07;;;1.20;;
68583;SDS011;55557;49.220;11.150;2023-11-21T07:34:40;3.60;;;1.73;;
68583;SDS011;55557;49.220;11.150;2023-11-21T07:37:06;3.47;;;1.57;;
68583;SDS011;55557;49.220;11.150;2023-11-21T07:39:34;5.23;;;1.83;;
68583;SDS011;55557;49.220;11.150;2023-11-21T07:42:00;3.33;;;2.23;;
68583;SDS011;55557;49.220;11.150;2023-11-21T07:44:29;9.50;;;2.70;;
68583;SDS011;55557;49.220;11.150;2023-11-21T07:46:55;5.73;;;3.40;;
68583;SDS011;55557;49.220;11.150;2023-11-21T07:49:22;5.77;;;3.50;;
68583;SDS011;55557;49.220;11.150;2023-11-21T07:51:48;6.67;;;3.60;;
68583;SDS011;55557;49.220;11.150;2023-11-21T07:54:14;5.90;;;3.30;;
68583;SDS011;55557;49.220;11.150;2023-11-21T07:56:40;7.73;;;3.47;;
68583;SDS011;55557;49.220;11.150;2023-11-21T07:59:07;5.87;;;3.53;;
68583;SDS011;55557;49.220;11.150;2023-11-21T08:01:33;8.17;;;3.57;;
68583;SDS011;55557;49.220;11.150;2023-11-21T08:03:59;9.80;;;3.73;;
68583;SDS011;55557;49.220;11.150;2023-11-21T08:06:28;7.33;;;4.17;;
68583;SDS011;55557;49.220;11.150;2023-11-21T08:08:54;9.43;;;3.73;;
68583;SDS011;55557;49.220;11.150;2023-11-21T08:11:20;7.37;;;4.13;;
68583;SDS011;55557;49.220;11.150;2023-11-21T08:13:46;6.63;;;3.40;;
68583;SDS011;55557;49.220;11.150;2023-11-21T08:16:12;6.33;;;3.43;;
68583;SDS011;55557;49.220;11.150;2023-11-21T08:18:38;5.53;;;2.97;;
68583;SDS011;55557;49.220;11.150;2023-11-21T08:21:06;6.43;;;3.00;;
68583;SDS011;55557;49.220;11.150;2023-11-21T08:23:33;6.10;;;2.90;;
68583;SDS011;55557;49.220;11.150;2023-11-21T08:25:59;6.87;;;3.47;;
68583;SDS011;55557;49.220;11.150;2023-11-21T08:28:26;4.90;;;3.17;;
68583;SDS011;55557;49.220;11.150;2023-11-21T08:30:52;5.83;;;3.40;;
68583;SDS011;55557;49.220;11.150;2023-11-21T08:33:21;7.70;;;2.70;;
68583;SDS011;55557;49.220;11.150;2023-11-21T08:35:47;5.93;;;3.43;;
68583;SDS011;55557;49.220;11.150;2023-11-21T08:38:13;5.97;;;3.80;;
68583;SDS011;55557;49.220;11.150;2023-11-21T08:40:39;8.17;;;4.30;;
68583;SDS011;55557;49.220;11.150;2023-11-21T08:43:05;5.27;;;3.50;;
68583;SDS011;55557;49.220;11.150;2023-11-21T08:45:33;9.03;;;4.60;;
68583;SDS011;55557;49.220;11.150;2023-11-21T08:47:59;8.30;;;4.93;;
68583;SDS011;55557;49.220;11.150;2023-11-21T08:50:25;6.63;;;3.50;;
68583;SDS011;55557;49.220;11.150;2023-11-21T08:52:51;5.07;;;3.10;;
68583;SDS011;55557;49.220;11.150;2023-11-21T08:55:17;8.57;;;3.63;;
68583;SDS011;55557;49.220;11.150;2023-11-21T08:57:45;6.13;;;2.90;;
68583;SDS011;55557;49.220;11.150;2023-11-21T09:00:11;5.50;;;2.73;;
68583;SDS011;55557;49.220;11.150;2023-11-21T09:02:40;5.60;;;3.83;;
68583;SDS011;55557;49.220;11.150;2023-11-21T09:05:10;3.87;;;2.63;;
68583;SDS011;55557;49.220;11.150;2023-11-21T09:07:36;5.67;;;2.67;;
68583;SDS011;55557;49.220;11.150;2023-11-21T09:10:03;7.47;;;2.50;;
68583;SDS011;55557;49.220;11.150;2023-11-21T09:12:30;3.97;;;2.10;;
68583;SDS011;55557;49.220;11.150;2023-11-21T09:14:57;2.73;;;2.00;;
68583;SDS011;55557;49.220;11.150;2023-11-21T09:17:23;2.43;;;1.87;;
68583;SDS011;55557;49.220;11.150;2023-11-21T09:19:49;3.27;;;2.03;;
68583;SDS011;55557;49.220;11.150;2023-11-21T09:22:16;3.10;;;2.50;;
68583;SDS011;55557;49.220;11.150;2023-11-21T09:24:42;4.93;;;2.50;;
68583;SDS011;55557;49.220;11.150;2023-11-21T09:27:09;3.10;;;2.33;;
68583;SDS011;55557;49.220;11.150;2023-11-21T09:29:36;2.93;;;2.23;;
68583;SDS011;55557;49.220;11.150;2023-11-21T09:32:05;3.43;;;2.70;;
68583;SDS011;55557;49.220;11.150;2023-11-21T09:34:33;4.80;;;2.70;;
68583;SDS011;55557;49.220;11.150;2023-11-21T09:37:03;5.50;;;2.67;;
68583;SDS011;55557;49.220;11.150;2023-11-21T09:39:31;3.30;;;2.53;;
68583;SDS011;55557;49.220;11.150;2023-11-21T09:41:59;9.80;;;2.73;;
68583;SDS011;55557;49.220;11.150;2023-11-21T09:44:46;3.57;;;2.27;;
68583;SDS011;55557;49.220;11.150;2023-11-21T09:47:14;3.07;;;2.53;;
68583;SDS011;55557;49.220;11.150;2023-11-21T09:49:42;2.93;;;2.23;;
68583;SDS011;55557;49.220;11.150;2023-11-21T09:52:08;3.03;;;2.43;;
68583;SDS011;55557;49.220;11.150;2023-11-21T09:54:35;2.70;;;2.27;;
68583;SDS011;55557;49.220;11.150;2023-11-21T09:57:01;3.30;;;2.67;;
68583;SDS011;55557;49.220;11.150;2023-11-21T09:59:30;3.47;;;2.30;;
68583;SDS011;55557;49.220;11.150;2023-11-21T10:02:00;5.70;;;2.77;;
68583;SDS011;55557;49.220;11.150;2023-11-21T10:04:27;3.37;;;2.30;;
68583;SDS011;55557;49.220;11.150;2023-11-21T10:06:54;3.40;;;2.73;;
68583;SDS011;55557;49.220;11.150;2023-11-21T10:09:20;7.50;;;2.40;;
68583;SDS011;55557;49.220;11.150;2023-11-21T10:11:46;3.50;;;2.47;;
68583;SDS011;55557;49.220;11.150;2023-11-21T10:14:13;5.07;;;2.40;;
68583;SDS011;55557;49.220;11.150;2023-11-21T10:16:40;4.27;;;1.87;;
68583;SDS011;55557;49.220;11.150;2023-11-21T10:19:09;2.70;;;2.30;;
68583;SDS011;55557;49.220;11.150;2023-11-21T10:21:35;3.43;;;2.20;;
68583;SDS011;55557;49.220;11.150;2023-11-21T10:24:03;3.90;;;2.23;;
68583;SDS011;55557;49.220;11.150;2023-11-21T10:26:29;3.73;;;1.97;;
68583;SDS011;55557;49.220;11.150;2023-11-21T10:28:59;5.00;;;1.80;;
68583;SDS011;55557;49.220;11.150;2023-11-21T10:31:29;3.17;;;1.90;;
68583;SDS011;55557;49.220;11.150;2023-11-21T10:34:11;2.70;;;1.70;;
68583;SDS011;55557;49.220;11.150;2023-11-21T10:36:37;6.43;;;1.97;;
68583;SDS011;55557;49.220;11.150;2023-11-21T10:39:03;2.40;;;1.67;;
68583;SDS011;55557;49.220;11.150;2023-11-21T10:41:29;3.97;;;1.70;;
68583;SDS011;55557;49.220;11.150;2023-11-21T10:43:55;1.73;;;1.53;;
68583;SDS011;55557;49.220;11.150;2023-11-21T10:46:21;1.93;;;1.73;;
68583;SDS011;55557;49.220;11.150;2023-11-21T10:48:54;3.67;;;1.93;;
68583;SDS011;55557;49.220;11.150;2023-11-21T10:51:21;4.80;;;2.00;;
68583;SDS011;55557;49.220;11.150;2023-11-21T10:53:49;3.27;;;1.90;;
68583;SDS011;55557;49.220;11.150;2023-11-21T10:56:16;1.97;;;1.67;;
68583;SDS011;55557;49.220;11.150;2023-11-21T10:58:44;3.40;;;1.60;;
68583;SDS011;55557;49.220;11.150;2023-11-21T11:01:10;2.47;;;1.80;;
68583;SDS011;55557;49.220;11.150;2023-11-21T11:03:39;3.03;;;1.97;;
68583;SDS011;55557;49.220;11.150;2023-11-21T11:06:05;2.63;;;1.97;;
68583;SDS011;55557;49.220;11.150;2023-11-21T11:08:36;2.50;;;2.10;;
68583;SDS011;55557;49.220;11.150;2023-11-21T11:11:03;1.97;;;1.77;;
68583;SDS011;55557;49.220;11.150;2023-11-21T11:13:29;3.37;;;2.10;;
68583;SDS011;55557;49.220;11.150;2023-11-21T11:15:57;2.67;;;2.47;;
68583;SDS011;55557;49.220;11.150;2023-11-21T11:18:25;3.37;;;2.00;;
68583;SDS011;55557;49.220;11.150;2023-11-21T11:20:51;4.00;;;1.90;;
68583;SDS011;55557;49.220;11.150;2023-11-21T11:28:52;4.77;;;2.10;;
68583;SDS011;55557;49.220;11.150;2023-11-21T11:31:37;2.87;;;1.60;;
68583;SDS011;55557;49.220;11.150;2023-11-21T11:34:17;4.53;;;1.90;;
68583;SDS011;55557;49.220;11.150;2023-11-21T11:36:49;2.70;;;1.70;;
68583;SDS011;55557;49.220;11.150;2023-11-21T11:39:33;1.83;;;1.30;;
68583;SDS011;55557;49.220;11.150;2023-11-21T11:42:01;2.70;;;1.57;;
68583;SDS011;55557;49.220;11.150;2023-11-21T11:47:16;3.33;;;1.50;;
68583;SDS011;55557;49.220;11.150;2023-11-21T11:49:57;1.87;;;1.73;;
68583;SDS011;55557;49.220;11.150;2023-11-21T11:52:40;3.07;;;2.00;;
68583;SDS011;55557;49.220;11.150;2023-11-21T11:55:07;2.37;;;1.70;;
68583;SDS011;55557;49.220;11.150;2023-11-21T11:57:37;2.90;;;2.47;;
68583;SDS011;55557;49.220;11.150;2023-11-21T12:00:06;6.50;;;2.00;;
68583;SDS011;55557;49.220;11.150;2023-11-21T12:02:35;3.50;;;2.00;;
68583;SDS011;55557;49.220;11.150;2023-11-21T12:05:06;3.10;;;1.80;;
68583;SDS011;55557;49.220;11.150;2023-11-21T12:07:47;4.80;;;1.60;;
68583;SDS011;55557;49.220;11.150;2023-11-21T12:10:17;3.90;;;2.20;;
68583;SDS011;55557;49.220;11.150;2023-11-21T12:12:52;3.00;;;2.10;;
68583;SDS011;55557;49.220;11.150;2023-11-21T12:15:19;2.73;;;2.40;;
68583;SDS011;55557;49.220;11.150;2023-11-21T12:17:46;2.63;;;2.07;;
68583;SDS011;55557;49.220;11.150;2023-11-21T12:20:13;2.90;;;1.83;;
68583;SDS011;55557;49.220;11.150;2023-11-21T12:23:00;3.60;;;2.67;;
68583;SDS011;55557;49.220;11.150;2023-11-21T12:25:29;2.97;;;1.93;;
68583;SDS011;55557;49.220;11.150;2023-11-21T12:27:57;3.23;;;2.30;;
68583;SDS011;55557;49.220;11.150;2023-11-21T12:30:24;3.30;;;2.37;;
68583;SDS011;55557;49.220;11.150;2023-11-21T12:32:53;7.00;;;2.67;;
68583;SDS011;55557;49.220;11.150;2023-11-21T12:35:21;4.00;;;2.80;;
68583;SDS011;55557;49.220;11.150;2023-11-21T12:37:47;4.90;;;2.50;;
68583;SDS011;55557;49.220;11.150;2023-11-21T12:40:14;5.00;;;2.97;;
68583;SDS011;55557;49.220;11.150;2023-11-21T12:42:41;3.97;;;3.23;;
68583;SDS011;55557;49.220;11.150;2023-11-21T12:47:49;3.53;;;2.97;;
68583;SDS011;55557;49.220;11.150;2023-11-21T12:50:15;6.53;;;3.97;;
68583;SDS011;55557;49.220;11.150;2023-11-21T12:52:47;3.43;;;3.13;;
68583;SDS011;55557;49.220;11.150;2023-11-21T12:55:13;5.80;;;3.30;;
68583;SDS011;55557;49.220;11.150;2023-11-21T12:57:41;6.27;;;3.23;;
68583;SDS011;55557;49.220;11.150;2023-11-21T13:00:08;3.97;;;3.40;;
68583;SDS011;55557;49.220;11.150;2023-11-21T13:02:38;6.47;;;3.80;;
68583;SDS011;55557;49.220;11.150;2023-11-21T13:05:08;4.77;;;4.00;;
68583;SDS011;55557;49.220;11.150;2023-11-21T13:07:43;4.70;;;3.60;;
68583;SDS011;55557;49.220;11.150;2023-11-21T13:10:12;5.33;;;4.23;;
68583;SDS011;55557;49.220;11.150;2023-11-21T13:12:42;6.00;;;3.93;;
68583;SDS011;55557;49.220;11.150;2023-11-21T13:15:09;4.43;;;3.50;;
68583;SDS011;55557;49.220;11.150;2023-11-21T13:17:35;4.63;;;3.87;;
68583;SDS011;55557;49.220;11.150;2023-11-21T13:20:01;5.93;;;3.97;;
68583;SDS011;55557;49.220;11.150;2023-11-21T13:22:33;5.63;;;3.67;;
68583;SDS011;55557;49.220;11.150;2023-11-21T13:25:00;4.47;;;3.60;;
68583;SDS011;55557;49.220;11.150;2023-11-21T13:27:32;3.80;;;3.50;;
68583;SDS011;55557;49.220;11.150;2023-11-21T13:29:59;8.57;;;3.50;;
68583;SDS011;55557;49.220;11.150;2023-11-21T13:32:25;4.57;;;3.37;;
68583;SDS011;55557;49.220;11.150;2023-11-21T13:34:51;6.43;;;4.20;;
68583;SDS011;55557;49.220;11.150;2023-11-21T13:37:19;4.27;;;3.87;;
68583;SDS011;55557;49.220;11.150;2023-11-21T13:39:45;6.13;;;3.90;;
68583;SDS011;55557;49.220;11.150;2023-11-21T13:42:14;6.40;;;3.53;;
68583;SDS011;55557;49.220;11.150;2023-11-21T13:44:41;4.60;;;4.03;;
68583;SDS011;55557;49.220;11.150;2023-11-21T13:47:11;4.50;;;3.83;;
68583;SDS011;55557;49.220;11.150;2023-11-21T13:49:37;5.40;;;4.07;;
68583;SDS011;55557;49.220;11.150;2023-11-21T13:52:06;5.73;;;3.57;;
68583;SDS011;55557;49.220;11.150;2023-11-21T13:54:32;5.57;;;3.60;;
68583;SDS011;55557;49.220;11.150;2023-11-21T13:56:58;5.40;;;3.03;;
68583;SDS011;55557;49.220;11.150;2023-11-21T13:59:25;5.90;;;3.50;;
68583;SDS011;55557;49.220;11.150;2023-11-21T14:01:53;6.20;;;3.30;;
68583;SDS011;55557;49.220;11.150;2023-11-21T14:04:25;8.87;;;3.53;;
68583;SDS011;55557;49.220;11.150;2023-11-21T14:07:11;8.07;;;3.00;;
68583;SDS011;55557;49.220;11.150;2023-11-21T14:10:13;6.33;;;3.20;;
68583;SDS011;55557;49.220;11.150;2023-11-21T14:12:41;3.43;;;2.87;;
68583;SDS011;55557;49.220;11.150;2023-11-21T14:15:07;3.47;;;3.17;;
68583;SDS011;55557;49.220;11.150;2023-11-21T14:17:35;4.43;;;3.27;;
68583;SDS011;55557;49.220;11.150;2023-11-21T14:20:03;9.83;;;3.60;;
68583;SDS011;55557;49.220;11.150;2023-11-21T14:22:30;3.50;;;2.80;;
68583;SDS011;55557;49.220;11.150;2023-11-21T14:24:56;3.53;;;2.30;;
68583;SDS011;55557;49.220;11.150;2023-11-21T14:27:24;4.17;;;2.63;;
68583;SDS011;55557;49.220;11.150;2023-11-21T14:29:50;7.03;;;2.87;;
68583;SDS011;55557;49.220;11.150;2023-11-21T14:32:17;3.53;;;2.77;;
68583;SDS011;55557;49.220;11.150;2023-11-21T14:34:43;3.57;;;2.37;;
68583;SDS011;55557;49.220;11.150;2023-11-21T14:37:12;4.83;;;2.47;;
68583;SDS011;55557;49.220;11.150;2023-11-21T14:39:38;3.10;;;2.40;;
68583;SDS011;55557;49.220;11.150;2023-11-21T14:42:09;2.40;;;1.90;;
68583;SDS011;55557;49.220;11.150;2023-11-21T14:44:35;4.57;;;1.90;;
68583;SDS011;55557;49.220;11.150;2023-11-21T14:47:06;3.07;;;2.10;;